createdAt,value
2018-09-04T00:00:43.021Z,7.30
2018-09-04T00:03:12.049Z,6.00
2018-09-04T00:05:41.069Z,8.40
2018-09-04T00:08:10.139Z,10.20
2018-09-04T00:10:39.209Z,7.00
2018-09-04T00:13:08.268Z,8.63
2018-09-04T00:15:37.405Z,6.50
2018-09-04T00:18:06.513Z,8.50
2018-09-04T00:20:35.625Z,10.10
2018-09-04T00:23:04.663Z,8.60
2018-09-04T00:25:33.760Z,7.53
2018-09-04T00:28:02.806Z,6.73
2018-09-04T00:30:31.858Z,10.43
2018-09-04T00:33:00.950Z,8.93
2018-09-04T00:35:30.186Z,15.87
2018-09-04T00:37:59.308Z,10.53
2018-09-04T00:40:28.518Z,9.57
2018-09-04T00:42:57.587Z,9.67
2018-09-04T00:45:26.696Z,8.80
2018-09-04T00:47:55.766Z,12.40
2018-09-04T00:50:24.847Z,9.47
2018-09-04T00:52:53.909Z,9.67
2018-09-04T00:55:22.984Z,11.63
2018-09-04T00:57:52.027Z,10.23
2018-09-04T01:00:24.477Z,13.80
2018-09-04T01:02:54.381Z,9.97
2018-09-04T01:05:23.410Z,9.07
2018-09-04T01:07:52.416Z,9.70
2018-09-04T01:10:21.511Z,12.47
2018-09-04T01:12:51.021Z,14.07
2018-09-04T01:15:20.070Z,10.10
2018-09-04T01:17:49.140Z,9.43
2018-09-04T01:20:18.205Z,11.10
2018-09-04T01:22:47.233Z,12.70
2018-09-04T01:25:16.336Z,11.50
2018-09-04T01:27:45.385Z,13.90
2018-09-04T01:30:14.469Z,10.20
2018-09-04T01:32:43.537Z,12.10
2018-09-04T01:35:12.622Z,11.70
2018-09-04T01:37:41.723Z,13.97
2018-09-04T01:40:10.822Z,19.33
2018-09-04T01:42:39.925Z,13.43
2018-09-04T01:45:09.093Z,12.40
2018-09-04T01:47:38.170Z,13.30
2018-09-04T01:50:07.210Z,15.90
2018-09-04T01:52:36.251Z,14.57
2018-09-04T01:55:05.319Z,13.80
2018-09-04T01:57:34.413Z,12.70
2018-09-04T02:00:03.452Z,17.13
2018-09-04T02:02:32.655Z,11.53
2018-09-04T02:05:01.717Z,15.20
2018-09-04T02:07:30.781Z,12.73
2018-09-04T02:09:59.856Z,17.20
2018-09-04T02:12:28.921Z,16.43
2018-09-04T02:14:57.975Z,14.67
2018-09-04T02:17:27.040Z,13.73
2018-09-04T02:19:56.103Z,12.43
2018-09-04T02:22:25.135Z,15.23
2018-09-04T02:24:54.192Z,16.20
2018-09-04T02:27:23.247Z,16.63
2018-09-04T02:29:52.342Z,13.23
2018-09-04T02:32:21.481Z,14.03
2018-09-04T02:34:50.658Z,17.70
2018-09-04T02:37:19.895Z,14.70
2018-09-04T02:39:49.053Z,15.80
2018-09-04T02:42:18.132Z,15.83
2018-09-04T02:44:47.226Z,14.33
2018-09-04T02:47:16.247Z,18.67
2018-09-04T02:49:45.280Z,17.17
2018-09-04T02:52:14.299Z,14.37
2018-09-04T02:54:43.344Z,17.23
2018-09-04T02:57:12.498Z,15.37
2018-09-04T02:59:41.550Z,19.77
2018-09-04T03:02:10.575Z,18.23
2018-09-04T03:04:39.652Z,15.53
2018-09-04T03:07:08.697Z,17.87
2018-09-04T03:09:37.726Z,16.47
2018-09-04T03:12:07.042Z,15.43
2018-09-04T03:14:36.098Z,16.47
2018-09-04T03:17:05.166Z,18.47
2018-09-04T03:19:34.185Z,14.90
2018-09-04T03:22:03.264Z,17.27
2018-09-04T03:24:32.328Z,13.60
2018-09-04T03:27:01.560Z,14.47
2018-09-04T03:29:30.754Z,16.33
2018-09-04T03:31:59.869Z,19.93
2018-09-04T03:34:28.939Z,16.83
2018-09-04T03:36:58.040Z,15.60
2018-09-04T03:39:27.132Z,14.80
2018-09-04T03:41:56.193Z,17.60
2018-09-04T03:44:25.287Z,16.37
2018-09-04T03:46:54.304Z,16.50
2018-09-04T03:49:23.318Z,17.13
2018-09-04T03:51:52.356Z,14.60
2018-09-04T03:54:21.406Z,15.53
2018-09-04T03:56:50.458Z,14.43
2018-09-04T03:59:19.472Z,16.73
2018-09-04T04:01:48.576Z,15.20
2018-09-04T04:04:17.576Z,19.67
2018-09-04T04:06:46.764Z,20.97
2018-09-04T04:09:15.806Z,20.40
2018-09-04T04:11:44.938Z,16.10
2018-09-04T04:14:13.998Z,17.97
2018-09-04T04:16:43.106Z,19.90
2018-09-04T04:19:12.268Z,18.30
2018-09-04T04:21:41.310Z,19.23
2018-09-04T04:24:10.416Z,16.80
2018-09-04T04:26:39.549Z,16.83
2018-09-04T04:29:08.721Z,17.60
2018-09-04T04:31:38.814Z,17.20
2018-09-04T04:34:08.303Z,17.30
2018-09-04T04:36:37.450Z,16.50
2018-09-04T04:39:09.304Z,18.27
2018-09-04T04:41:38.571Z,16.43
2018-09-04T04:44:08.416Z,27.33
2018-09-04T04:46:38.238Z,23.53
2018-09-04T04:49:07.843Z,18.80
2018-09-04T04:51:36.889Z,18.10
2018-09-04T04:54:06.595Z,17.30
2018-09-04T04:56:35.793Z,18.20
2018-09-04T04:59:04.858Z,23.27
2018-09-04T05:01:33.930Z,16.63
2018-09-04T05:04:02.961Z,16.67
2018-09-04T05:06:32.102Z,15.83
2018-09-04T05:09:01.149Z,16.70
2018-09-04T05:11:30.482Z,16.97
2018-09-04T05:13:59.569Z,16.43
2018-09-04T05:16:28.667Z,18.13
2018-09-04T05:18:57.766Z,18.90
2018-09-04T05:21:26.941Z,17.97
2018-09-04T05:23:56.048Z,18.30
2018-09-04T05:26:25.120Z,18.50
2018-09-04T05:28:54.190Z,20.13
2018-09-04T05:31:23.411Z,17.10
2018-09-04T05:33:52.583Z,18.30
2018-09-04T05:36:21.680Z,17.00
2018-09-04T05:38:50.838Z,20.40
2018-09-04T05:41:19.956Z,25.07
2018-09-04T05:43:53.994Z,18.90
2018-09-04T05:46:35.729Z,18.23
2018-09-04T05:49:05.106Z,15.97
2018-09-04T05:51:34.263Z,23.33
2018-09-04T05:54:03.318Z,18.00
2018-09-04T05:56:32.466Z,15.90
2018-09-04T05:59:01.590Z,18.30
2018-09-04T06:01:30.686Z,17.77
2018-09-04T06:03:59.833Z,17.77
2018-09-04T06:06:28.960Z,16.30
2018-09-04T06:08:58.142Z,19.70
2018-09-04T06:11:27.284Z,19.93
2018-09-04T06:13:56.566Z,18.83
2018-09-04T06:16:25.949Z,16.63
2018-09-04T06:18:55.247Z,18.27
2018-09-04T06:21:24.751Z,16.60
2018-09-04T06:23:53.972Z,16.77
2018-09-04T06:26:23.763Z,18.30
2018-09-04T06:28:52.837Z,16.33
2018-09-04T06:31:21.920Z,16.20
2018-09-04T06:33:50.962Z,18.40
2018-09-04T06:36:20.068Z,16.80
2018-09-04T06:38:49.116Z,16.57
2018-09-04T06:41:18.153Z,17.20
2018-09-04T06:43:47.170Z,19.87
2018-09-04T06:46:16.241Z,16.63
2018-09-04T06:48:45.423Z,19.40
2018-09-04T06:51:14.557Z,17.33
2018-09-04T06:53:43.685Z,18.70
2018-09-04T06:56:12.843Z,18.87
2018-09-04T06:58:41.990Z,17.60
2018-09-04T07:01:11.160Z,17.63
2018-09-04T07:03:40.327Z,19.07
2018-09-04T07:06:09.605Z,18.03
2018-09-04T07:08:38.619Z,19.40
2018-09-04T07:11:07.794Z,16.70
2018-09-04T07:13:37.035Z,18.43
2018-09-04T07:16:06.394Z,15.70
2018-09-04T07:18:35.633Z,19.03
2018-09-04T07:21:04.871Z,17.50
2018-09-04T07:23:34.108Z,17.20
2018-09-04T07:26:03.933Z,16.17
2018-09-04T07:28:33.424Z,18.03
2018-09-04T07:31:02.599Z,18.80
2018-09-04T07:33:31.747Z,16.00
2018-09-04T07:36:01.399Z,14.43
2018-09-04T07:38:31.439Z,14.67
2018-09-04T07:41:00.707Z,17.40
2018-09-04T07:43:43.360Z,19.07
2018-09-04T07:46:13.809Z,12.87
2018-09-04T07:48:43.217Z,14.00
2018-09-04T07:51:12.424Z,12.60
2018-09-04T07:53:41.793Z,12.23
2018-09-04T07:56:13.407Z,12.20
2018-09-04T07:58:42.657Z,13.40
2018-09-04T08:01:12.444Z,14.80
2018-09-04T08:03:41.849Z,11.60
2018-09-04T08:06:14.785Z,12.00
2018-09-04T08:08:44.664Z,14.47
2018-09-04T08:11:14.108Z,11.60
2018-09-04T08:13:44.233Z,9.73
2018-09-04T08:16:14.012Z,12.97
2018-09-04T08:19:48.128Z,16.93
2018-09-04T08:22:17.735Z,13.27
2018-09-04T08:25:20.432Z,10.17
2018-09-04T08:28:15.041Z,10.97
2018-09-04T08:37:19.164Z,10.50
2018-09-04T08:39:48.666Z,10.43
2018-09-04T08:42:18.411Z,13.13
2018-09-04T08:44:50.074Z,15.73
2018-09-04T08:47:20.129Z,8.60
2018-09-04T08:49:49.590Z,11.47
2018-09-04T08:52:22.655Z,10.17
2018-09-04T08:54:52.248Z,9.60
2018-09-04T08:57:22.882Z,13.03
2018-09-04T08:59:52.133Z,9.67
2018-09-04T09:02:22.140Z,12.30
2018-09-04T09:04:51.771Z,8.70
2018-09-04T09:07:21.087Z,9.37
2018-09-04T09:09:50.970Z,9.83
2018-09-04T09:15:22.318Z,9.20
2018-09-04T09:18:10.093Z,8.30
2018-09-04T09:20:51.888Z,12.50
2018-09-04T09:23:24.405Z,8.73
2018-09-04T09:25:55.151Z,11.87
2018-09-04T09:28:24.656Z,7.23
2018-09-04T09:30:55.137Z,7.73
2018-09-04T09:33:43.275Z,7.07
2018-09-04T09:45:16.118Z,16.43
2018-09-04T09:50:36.481Z,8.00
2018-09-04T09:53:05.706Z,11.63
2018-09-04T09:55:39.406Z,9.37
2018-09-04T10:01:07.465Z,10.33
2018-09-04T10:03:42.028Z,10.63
2018-09-04T10:06:26.458Z,8.63
2018-09-04T10:08:55.491Z,10.80
2018-09-04T10:11:24.528Z,10.37
2018-09-04T10:13:53.604Z,8.13
2018-09-04T10:16:22.732Z,9.63
2018-09-04T10:18:51.798Z,9.20
2018-09-04T10:21:21.052Z,10.67
2018-09-04T10:23:50.101Z,7.73
2018-09-04T10:26:19.720Z,7.87
2018-09-04T10:28:49.641Z,6.87
2018-09-04T10:31:18.654Z,10.70
2018-09-04T10:34:00.090Z,7.67
2018-09-04T10:36:29.282Z,7.27
2018-09-04T10:45:28.993Z,9.03
2018-09-04T10:48:00.326Z,9.07
2018-09-04T10:50:37.602Z,7.37
2018-09-04T10:53:41.754Z,12.43
2018-09-04T10:56:29.168Z,6.83
2018-09-04T10:58:59.797Z,6.30
2018-09-04T11:01:44.112Z,8.67
2018-09-04T11:04:29.390Z,6.80
2018-09-04T11:07:20.257Z,7.30
2018-09-04T11:13:21.623Z,5.87
2018-09-04T11:16:14.701Z,6.40
2018-09-04T11:19:12.306Z,6.73
2018-09-04T11:25:08.037Z,6.53
2018-09-04T11:27:55.098Z,8.00
2018-09-04T11:30:53.744Z,12.10
2018-09-04T11:36:28.884Z,9.00
2018-09-04T11:39:07.677Z,6.40
2018-09-04T11:42:35.868Z,6.10
2018-09-04T11:48:05.259Z,8.93
2018-09-04T11:53:45.250Z,6.40
2018-09-04T12:01:41.713Z,5.63
2018-09-04T12:07:36.774Z,7.83
2018-09-04T12:10:07.338Z,6.93
2018-09-04T12:12:55.889Z,9.83
2018-09-04T12:15:50.213Z,5.50
2018-09-04T12:18:19.467Z,4.27
2018-09-04T12:20:53.997Z,5.00
2018-09-04T12:23:30.745Z,6.90
2018-09-04T12:26:27.816Z,4.20
2018-09-04T12:28:58.282Z,3.70
2018-09-04T12:31:34.109Z,3.80
2018-09-04T12:34:20.822Z,5.90
2018-09-04T12:45:49.626Z,6.67
2018-09-04T12:48:30.416Z,6.60
2018-09-04T12:51:00.820Z,6.00
2018-09-04T12:53:31.137Z,4.87
2018-09-04T12:56:00.320Z,7.40
2018-09-04T12:58:29.622Z,4.50
2018-09-04T13:00:59.269Z,4.70
2018-09-04T13:03:29.418Z,4.23
2018-09-04T13:05:59.084Z,6.67
2018-09-04T13:08:29.995Z,6.10
2018-09-04T13:10:59.470Z,7.20
2018-09-04T13:13:29.414Z,3.87
2018-09-04T13:15:59.906Z,6.97
2018-09-04T13:18:30.995Z,5.40
2018-09-04T13:21:03.002Z,8.13
2018-09-04T13:23:33.315Z,4.47
2018-09-04T13:26:02.980Z,5.70
2018-09-04T13:28:33.264Z,10.97
2018-09-04T13:31:02.917Z,4.97
2018-09-04T13:33:32.166Z,4.70
2018-09-04T13:36:01.320Z,6.33
2018-09-04T13:38:30.505Z,5.90
2018-09-04T13:41:04.972Z,7.10
2018-09-04T13:43:34.227Z,6.80
2018-09-04T13:46:03.593Z,5.00
2018-09-04T13:48:34.042Z,12.13
2018-09-04T13:51:03.309Z,5.53
2018-09-04T13:53:32.448Z,6.37
2018-09-04T13:56:01.489Z,6.93
2018-09-04T13:58:30.599Z,5.17
2018-09-04T14:00:59.641Z,7.87
2018-09-04T14:03:28.995Z,4.80
2018-09-04T14:05:58.062Z,5.53
2018-09-04T14:08:27.194Z,10.73
2018-09-04T14:10:56.315Z,4.60
2018-09-04T14:13:25.643Z,7.03
2018-09-04T14:15:57.640Z,5.27
2018-09-04T14:18:26.697Z,5.77
2018-09-04T14:20:55.941Z,7.30
2018-09-04T14:23:25.006Z,5.93
2018-09-04T14:25:54.063Z,4.67
2018-09-04T14:28:40.970Z,7.00
2018-09-04T14:30:52.421Z,7.43
2018-09-04T14:33:21.518Z,4.87
2018-09-04T14:35:50.669Z,5.93
2018-09-04T14:38:20.327Z,9.10
2018-09-04T14:40:49.595Z,5.70
2018-09-04T14:43:19.383Z,5.40
2018-09-04T14:46:06.325Z,6.20
2018-09-04T14:48:35.462Z,8.77
2018-09-04T14:51:04.703Z,9.23
2018-09-04T14:53:33.795Z,13.67
2018-09-04T14:56:02.846Z,6.47
2018-09-04T14:58:32.335Z,6.03
2018-09-04T15:01:02.010Z,7.57
2018-09-04T15:03:31.282Z,6.67
2018-09-04T15:06:00.951Z,6.97
2018-09-04T15:08:31.108Z,5.57
2018-09-04T15:11:00.599Z,8.03
2018-09-04T15:13:30.219Z,9.10
2018-09-04T15:16:00.203Z,6.63
2018-09-04T15:18:29.598Z,7.30
2018-09-04T15:20:59.154Z,5.57
2018-09-04T15:23:28.881Z,6.13
2018-09-04T15:25:58.978Z,9.80
2018-09-04T15:28:28.358Z,6.27
2018-09-04T15:30:57.801Z,5.60
2018-09-04T15:33:27.130Z,5.50
2018-09-04T15:35:56.281Z,6.23
2018-09-04T15:38:25.396Z,6.57
2018-09-04T15:40:54.492Z,6.27
2018-09-04T15:43:23.778Z,5.10
2018-09-04T15:45:52.943Z,5.03
2018-09-04T15:48:22.045Z,5.90
2018-09-04T15:50:51.109Z,4.80
2018-09-04T15:53:20.223Z,6.87
2018-09-04T15:55:49.269Z,8.17
2018-09-04T15:58:18.342Z,12.30
2018-09-04T16:00:47.460Z,7.93
2018-09-04T16:03:16.866Z,5.73
2018-09-04T16:05:45.946Z,6.33
2018-09-04T16:08:15.092Z,6.17
2018-09-04T16:10:44.310Z,6.80
2018-09-04T16:13:13.448Z,5.20
2018-09-04T16:15:43.340Z,5.50
2018-09-04T16:18:13.098Z,5.50
2018-09-04T16:20:42.425Z,4.40
2018-09-04T16:23:12.396Z,5.47
2018-09-04T16:25:41.573Z,6.57
2018-09-04T16:28:10.945Z,5.10
2018-09-04T16:30:40.237Z,7.10
2018-09-04T16:33:09.438Z,7.17
2018-09-04T16:35:38.784Z,6.23
2018-09-04T16:38:08.109Z,7.40
2018-09-04T16:40:37.785Z,10.60
2018-09-04T16:43:07.302Z,5.53
2018-09-04T16:45:38.422Z,5.63
2018-09-04T16:48:07.726Z,6.43
2018-09-04T16:50:36.863Z,6.87
2018-09-04T16:53:06.046Z,9.73
2018-09-04T16:55:35.237Z,7.20
2018-09-04T16:58:04.584Z,6.60
2018-09-04T17:00:33.682Z,5.30
2018-09-04T17:03:02.855Z,5.60
2018-09-04T17:05:32.035Z,8.10
2018-09-04T17:08:01.332Z,6.20
2018-09-04T17:10:30.626Z,4.40
2018-09-04T17:12:59.779Z,9.00
2018-09-04T17:15:29.102Z,9.03
2018-09-04T17:17:58.387Z,5.70
2018-09-04T17:20:27.678Z,4.27
2018-09-04T17:22:57.027Z,8.27
2018-09-04T17:25:26.608Z,8.23
2018-09-04T17:27:56.092Z,9.03
2018-09-04T17:30:26.355Z,7.37
2018-09-04T17:36:01.858Z,6.60
2018-09-04T17:38:31.217Z,6.17
2018-09-04T17:41:00.773Z,6.43
2018-09-04T17:43:30.172Z,5.53
2018-09-04T17:45:59.580Z,5.83
2018-09-04T17:48:29.449Z,6.20
2018-09-04T17:50:58.918Z,7.40
2018-09-04T17:53:33.109Z,6.40
2018-09-04T18:03:10.374Z,7.97
2018-09-04T18:15:27.193Z,7.23
2018-09-04T18:18:01.873Z,7.97
2018-09-04T18:26:33.317Z,18.63
2018-09-04T18:29:02.934Z,8.00
2018-09-04T23:43:20.031Z,11.37
